sensor_id;sensor_type;location;lat;lon;timestamp;P1;durP1;ratioP1;P2;durP2;ratioP2
84889;SDS011;75153;52.222;5.160;2024-01-10T00:00:48;3.43;;;2.30;;
84889;SDS011;75153;52.222;5.160;2024-01-10T00:03:13;5.25;;;2.22;;
84889;SDS011;75153;52.222;5.160;2024-01-10T00:05:39;4.73;;;2.60;;
84889;SDS011;75153;52.222;5.160;2024-01-10T00:08:04;5.10;;;2.70;;
84889;SDS011;75153;52.222;5.160;2024-01-10T00:10:31;4.78;;;2.42;;
84889;SDS011;75153;52.222;5.160;2024-01-10T00:12:56;3.77;;;2.33;;
84889;SDS011;75153;52.222;5.160;2024-01-10T00:15:21;3.97;;;1.93;;
84889;SDS011;75153;52.222;5.160;2024-01-10T00:17:47;7.20;;;2.73;;
84889;SDS011;75153;52.222;5.160;2024-01-10T00:20:12;5.27;;;2.83;;
84889;SDS011;75153;52.222;5.160;2024-01-10T00:22:37;5.23;;;2.53;;
84889;SDS011;75153;52.222;5.160;2024-01-10T00:25:03;6.53;;;2.60;;
84889;SDS011;75153;52.222;5.160;2024-01-10T00:27:29;5.60;;;2.70;;
84889;SDS011;75153;52.222;5.160;2024-01-10T00:29:55;5.57;;;2.33;;
84889;SDS011;75153;52.222;5.160;2024-01-10T00:32:21;5.28;;;2.65;;
84889;SDS011;75153;52.222;5.160;2024-01-10T00:34:47;6.70;;;2.53;;
84889;SDS011;75153;52.222;5.160;2024-01-10T00:37:12;4.80;;;2.50;;
84889;SDS011;75153;52.222;5.160;2024-01-10T00:39:37;6.47;;;3.17;;
84889;SDS011;75153;52.222;5.160;2024-01-10T00:42:03;4.13;;;2.47;;
84889;SDS011;75153;52.222;5.160;2024-01-10T00:44:28;5.78;;;2.60;;
84889;SDS011;75153;52.222;5.160;2024-01-10T00:46:54;4.83;;;2.37;;
84889;SDS011;75153;52.222;5.160;2024-01-10T00:49:19;4.57;;;2.30;;
84889;SDS011;75153;52.222;5.160;2024-01-10T00:51:45;5.80;;;2.63;;
84889;SDS011;75153;52.222;5.160;2024-01-10T00:54:10;7.67;;;2.90;;
84889;SDS011;75153;52.222;5.160;2024-01-10T00:56:35;5.97;;;3.00;;
84889;SDS011;75153;52.222;5.160;2024-01-10T00:59:01;4.93;;;2.58;;
84889;SDS011;75153;52.222;5.160;2024-01-10T01:01:26;6.37;;;2.90;;
84889;SDS011;75153;52.222;5.160;2024-01-10T01:03:52;4.73;;;3.00;;
84889;SDS011;75153;52.222;5.160;2024-01-10T01:06:17;5.60;;;2.50;;
84889;SDS011;75153;52.222;5.160;2024-01-10T01:08:42;4.20;;;2.73;;
84889;SDS011;75153;52.222;5.160;2024-01-10T01:11:08;6.30;;;2.75;;
84889;SDS011;75153;52.222;5.160;2024-01-10T01:13:33;5.13;;;3.08;;
84889;SDS011;75153;52.222;5.160;2024-01-10T01:15:58;5.00;;;3.17;;
84889;SDS011;75153;52.222;5.160;2024-01-10T01:18:24;5.17;;;2.50;;
84889;SDS011;75153;52.222;5.160;2024-01-10T01:20:49;4.47;;;2.80;;
84889;SDS011;75153;52.222;5.160;2024-01-10T01:23:15;7.38;;;3.28;;
84889;SDS011;75153;52.222;5.160;2024-01-10T01:25:41;6.95;;;3.60;;
84889;SDS011;75153;52.222;5.160;2024-01-10T01:28:07;6.73;;;3.57;;
84889;SDS011;75153;52.222;5.160;2024-01-10T01:30:33;5.78;;;3.20;;
84889;SDS011;75153;52.222;5.160;2024-01-10T01:32:58;5.90;;;3.23;;
84889;SDS011;75153;52.222;5.160;2024-01-10T01:35:23;7.93;;;3.57;;
84889;SDS011;75153;52.222;5.160;2024-01-10T01:37:49;7.30;;;3.60;;
84889;SDS011;75153;52.222;5.160;2024-01-10T01:40:14;7.70;;;3.70;;
84889;SDS011;75153;52.222;5.160;2024-01-10T01:42:40;6.70;;;3.60;;
84889;SDS011;75153;52.222;5.160;2024-01-10T01:45:05;7.20;;;3.90;;
84889;SDS011;75153;52.222;5.160;2024-01-10T01:47:31;7.22;;;3.58;;
84889;SDS011;75153;52.222;5.160;2024-01-10T01:49:57;6.73;;;3.90;;
84889;SDS011;75153;52.222;5.160;2024-01-10T01:52:22;10.90;;;3.20;;
84889;SDS011;75153;52.222;5.160;2024-01-10T01:54:48;10.10;;;4.13;;
84889;SDS011;75153;52.222;5.160;2024-01-10T01:57:14;5.88;;;3.80;;
84889;SDS011;75153;52.222;5.160;2024-01-10T01:59:40;7.87;;;4.00;;
84889;SDS011;75153;52.222;5.160;2024-01-10T02:02:05;6.50;;;4.10;;
84889;SDS011;75153;52.222;5.160;2024-01-10T02:04:31;6.78;;;3.70;;
84889;SDS011;75153;52.222;5.160;2024-01-10T02:06:56;7.17;;;4.10;;
84889;SDS011;75153;52.222;5.160;2024-01-10T02:09:22;7.35;;;3.47;;
84889;SDS011;75153;52.222;5.160;2024-01-10T02:11:48;7.53;;;4.30;;
84889;SDS011;75153;52.222;5.160;2024-01-10T02:14:13;7.30;;;4.22;;
84889;SDS011;75153;52.222;5.160;2024-01-10T02:16:40;5.78;;;3.65;;
84889;SDS011;75153;52.222;5.160;2024-01-10T02:19:21;8.67;;;4.17;;
84889;SDS011;75153;52.222;5.160;2024-01-10T02:21:47;7.13;;;3.97;;
84889;SDS011;75153;52.222;5.160;2024-01-10T02:24:13;5.97;;;3.60;;
84889;SDS011;75153;52.222;5.160;2024-01-10T02:26:39;5.90;;;3.63;;
84889;SDS011;75153;52.222;5.160;2024-01-10T02:29:04;8.13;;;4.13;;
84889;SDS011;75153;52.222;5.160;2024-01-10T02:31:30;7.50;;;4.13;;
84889;SDS011;75153;52.222;5.160;2024-01-10T02:33:55;7.17;;;4.00;;
84889;SDS011;75153;52.222;5.160;2024-01-10T02:36:20;8.07;;;4.10;;
84889;SDS011;75153;52.222;5.160;2024-01-10T02:38:46;10.15;;;4.88;;
84889;SDS011;75153;52.222;5.160;2024-01-10T02:41:12;6.30;;;4.00;;
84889;SDS011;75153;52.222;5.160;2024-01-10T02:43:38;7.97;;;4.45;;
84889;SDS011;75153;52.222;5.160;2024-01-10T02:46:03;8.13;;;4.43;;
84889;SDS011;75153;52.222;5.160;2024-01-10T02:48:29;7.53;;;3.83;;
84889;SDS011;75153;52.222;5.160;2024-01-10T02:50:54;8.23;;;4.77;;
84889;SDS011;75153;52.222;5.160;2024-01-10T02:53:21;5.65;;;3.33;;
84889;SDS011;75153;52.222;5.160;2024-01-10T02:55:46;7.38;;;4.10;;
84889;SDS011;75153;52.222;5.160;2024-01-10T02:58:13;8.57;;;4.30;;
84889;SDS011;75153;52.222;5.160;2024-01-10T03:00:38;7.70;;;4.40;;
84889;SDS011;75153;52.222;5.160;2024-01-10T03:03:04;7.23;;;4.53;;
84889;SDS011;75153;52.222;5.160;2024-01-10T03:05:29;6.60;;;4.00;;
84889;SDS011;75153;52.222;5.160;2024-01-10T03:07:55;8.90;;;4.55;;
84889;SDS011;75153;52.222;5.160;2024-01-10T03:10:20;9.93;;;5.03;;
84889;SDS011;75153;52.222;5.160;2024-01-10T03:12:45;8.60;;;4.50;;
84889;SDS011;75153;52.222;5.160;2024-01-10T03:15:11;8.27;;;4.13;;
84889;SDS011;75153;52.222;5.160;2024-01-10T03:17:37;10.40;;;4.60;;
84889;SDS011;75153;52.222;5.160;2024-01-10T03:20:02;9.00;;;4.90;;
84889;SDS011;75153;52.222;5.160;2024-01-10T03:22:29;7.65;;;3.83;;
84889;SDS011;75153;52.222;5.160;2024-01-10T03:24:56;7.07;;;3.40;;
84889;SDS011;75153;52.222;5.160;2024-01-10T03:27:21;8.63;;;5.43;;
84889;SDS011;75153;52.222;5.160;2024-01-10T03:29:47;6.28;;;3.65;;
84889;SDS011;75153;52.222;5.160;2024-01-10T03:32:12;9.07;;;4.87;;
84889;SDS011;75153;52.222;5.160;2024-01-10T03:34:38;10.30;;;5.27;;
84889;SDS011;75153;52.222;5.160;2024-01-10T03:37:03;6.93;;;4.07;;
84889;SDS011;75153;52.222;5.160;2024-01-10T03:39:29;11.17;;;4.77;;
84889;SDS011;75153;52.222;5.160;2024-01-10T03:41:55;8.63;;;3.97;;
84889;SDS011;75153;52.222;5.160;2024-01-10T03:44:21;6.67;;;4.00;;
84889;SDS011;75153;52.222;5.160;2024-01-10T03:46:46;10.33;;;4.10;;
84889;SDS011;75153;52.222;5.160;2024-01-10T03:49:11;9.10;;;4.03;;
84889;SDS011;75153;52.222;5.160;2024-01-10T03:51:37;5.37;;;3.10;;
84889;SDS011;75153;52.222;5.160;2024-01-10T03:54:02;7.00;;;3.27;;
84889;SDS011;75153;52.222;5.160;2024-01-10T03:56:28;7.13;;;3.85;;
84889;SDS011;75153;52.222;5.160;2024-01-10T03:58:54;6.97;;;3.80;;
84889;SDS011;75153;52.222;5.160;2024-01-10T04:01:21;6.23;;;3.20;;
84889;SDS011;75153;52.222;5.160;2024-01-10T04:03:48;6.82;;;3.47;;
84889;SDS011;75153;52.222;5.160;2024-01-10T04:06:13;4.90;;;3.07;;
84889;SDS011;75153;52.222;5.160;2024-01-10T04:08:39;7.70;;;3.50;;
84889;SDS011;75153;52.222;5.160;2024-01-10T04:11:04;6.97;;;4.27;;
84889;SDS011;75153;52.222;5.160;2024-01-10T04:13:30;6.77;;;3.20;;
84889;SDS011;75153;52.222;5.160;2024-01-10T04:15:55;7.37;;;3.97;;
84889;SDS011;75153;52.222;5.160;2024-01-10T04:18:20;7.40;;;4.13;;
84889;SDS011;75153;52.222;5.160;2024-01-10T04:20:47;6.67;;;3.80;;
84889;SDS011;75153;52.222;5.160;2024-01-10T04:23:12;8.65;;;4.05;;
84889;SDS011;75153;52.222;5.160;2024-01-10T04:25:38;6.10;;;3.43;;
84889;SDS011;75153;52.222;5.160;2024-01-10T04:28:04;8.07;;;4.07;;
84889;SDS011;75153;52.222;5.160;2024-01-10T04:30:30;5.60;;;3.50;;
84889;SDS011;75153;52.222;5.160;2024-01-10T04:32:55;8.60;;;4.80;;
84889;SDS011;75153;52.222;5.160;2024-01-10T04:35:20;9.53;;;4.20;;
84889;SDS011;75153;52.222;5.160;2024-01-10T04:37:46;6.53;;;3.30;;
84889;SDS011;75153;52.222;5.160;2024-01-10T04:40:11;7.10;;;3.57;;
84889;SDS011;75153;52.222;5.160;2024-01-10T04:42:37;8.57;;;4.23;;
84889;SDS011;75153;52.222;5.160;2024-01-10T04:45:02;8.87;;;4.30;;
84889;SDS011;75153;52.222;5.160;2024-01-10T04:47:28;8.95;;;4.70;;
84889;SDS011;75153;52.222;5.160;2024-01-10T04:49:53;9.27;;;5.37;;
84889;SDS011;75153;52.222;5.160;2024-01-10T04:52:18;8.87;;;4.57;;
84889;SDS011;75153;52.222;5.160;2024-01-10T04:54:44;7.20;;;4.10;;
84889;SDS011;75153;52.222;5.160;2024-01-10T04:57:09;9.60;;;4.40;;
84889;SDS011;75153;52.222;5.160;2024-01-10T04:59:34;8.55;;;4.57;;
84889;SDS011;75153;52.222;5.160;2024-01-10T05:02:00;10.13;;;5.07;;
84889;SDS011;75153;52.222;5.160;2024-01-10T05:04:25;9.27;;;5.33;;
84889;SDS011;75153;52.222;5.160;2024-01-10T05:06:50;9.53;;;4.70;;
84889;SDS011;75153;52.222;5.160;2024-01-10T05:09:16;7.13;;;4.47;;
84889;SDS011;75153;52.222;5.160;2024-01-10T05:11:42;11.60;;;5.10;;
84889;SDS011;75153;52.222;5.160;2024-01-10T05:14:08;8.73;;;5.03;;
84889;SDS011;75153;52.222;5.160;2024-01-10T05:16:33;9.40;;;4.53;;
84889;SDS011;75153;52.222;5.160;2024-01-10T05:19:00;9.87;;;4.93;;
84889;SDS011;75153;52.222;5.160;2024-01-10T05:21:28;7.72;;;4.20;;
84889;SDS011;75153;52.222;5.160;2024-01-10T05:23:55;8.35;;;4.40;;
84889;SDS011;75153;52.222;5.160;2024-01-10T05:26:20;7.37;;;4.17;;
84889;SDS011;75153;52.222;5.160;2024-01-10T05:28:46;9.07;;;4.77;;
84889;SDS011;75153;52.222;5.160;2024-01-10T05:31:11;13.95;;;6.18;;
84889;SDS011;75153;52.222;5.160;2024-01-10T05:33:36;9.53;;;5.07;;
84889;SDS011;75153;52.222;5.160;2024-01-10T05:36:02;11.63;;;4.70;;
84889;SDS011;75153;52.222;5.160;2024-01-10T05:38:28;7.85;;;4.80;;
84889;SDS011;75153;52.222;5.160;2024-01-10T05:40:53;9.63;;;4.80;;
84889;SDS011;75153;52.222;5.160;2024-01-10T05:43:18;12.00;;;5.83;;
84889;SDS011;75153;52.222;5.160;2024-01-10T05:45:44;9.87;;;5.50;;
84889;SDS011;75153;52.222;5.160;2024-01-10T05:48:10;10.00;;;5.10;;
84889;SDS011;75153;52.222;5.160;2024-01-10T05:50:35;10.18;;;4.72;;
84889;SDS011;75153;52.222;5.160;2024-01-10T05:53:00;11.30;;;5.55;;
84889;SDS011;75153;52.222;5.160;2024-01-10T05:55:27;9.93;;;5.17;;
84889;SDS011;75153;52.222;5.160;2024-01-10T05:57:52;7.90;;;4.53;;
84889;SDS011;75153;52.222;5.160;2024-01-10T06:00:17;8.50;;;4.80;;
84889;SDS011;75153;52.222;5.160;2024-01-10T06:02:43;9.27;;;4.90;;
84889;SDS011;75153;52.222;5.160;2024-01-10T06:05:09;9.23;;;5.00;;
84889;SDS011;75153;52.222;5.160;2024-01-10T06:07:36;8.68;;;4.53;;
84889;SDS011;75153;52.222;5.160;2024-01-10T06:10:02;9.03;;;4.80;;
84889;SDS011;75153;52.222;5.160;2024-01-10T06:12:27;9.10;;;4.65;;
84889;SDS011;75153;52.222;5.160;2024-01-10T06:14:53;7.90;;;4.40;;
84889;SDS011;75153;52.222;5.160;2024-01-10T06:17:19;7.10;;;3.83;;
84889;SDS011;75153;52.222;5.160;2024-01-10T06:19:44;7.27;;;4.13;;
84889;SDS011;75153;52.222;5.160;2024-01-10T06:22:10;8.80;;;4.03;;
84889;SDS011;75153;52.222;5.160;2024-01-10T06:24:36;10.27;;;4.57;;
84889;SDS011;75153;52.222;5.160;2024-01-10T06:27:03;7.70;;;4.13;;
84889;SDS011;75153;52.222;5.160;2024-01-10T06:29:29;8.45;;;4.32;;
84889;SDS011;75153;52.222;5.160;2024-01-10T06:31:55;8.00;;;4.20;;
84889;SDS011;75153;52.222;5.160;2024-01-10T06:34:22;7.10;;;3.80;;
84889;SDS011;75153;52.222;5.160;2024-01-10T06:36:47;9.80;;;3.63;;
84889;SDS011;75153;52.222;5.160;2024-01-10T06:39:13;11.17;;;4.70;;
84889;SDS011;75153;52.222;5.160;2024-01-10T06:41:39;11.03;;;5.10;;
84889;SDS011;75153;52.222;5.160;2024-01-10T06:44:04;9.23;;;4.85;;
84889;SDS011;75153;52.222;5.160;2024-01-10T06:46:31;10.27;;;5.23;;
84889;SDS011;75153;52.222;5.160;2024-01-10T06:48:57;7.40;;;4.05;;
84889;SDS011;75153;52.222;5.160;2024-01-10T06:51:22;7.03;;;4.13;;
84889;SDS011;75153;52.222;5.160;2024-01-10T06:53:48;10.03;;;4.47;;
84889;SDS011;75153;52.222;5.160;2024-01-10T06:56:13;9.03;;;4.93;;
84889;SDS011;75153;52.222;5.160;2024-01-10T06:58:39;7.82;;;4.18;;
84889;SDS011;75153;52.222;5.160;2024-01-10T07:01:05;8.87;;;4.53;;
84889;SDS011;75153;52.222;5.160;2024-01-10T07:03:33;6.80;;;4.10;;
84889;SDS011;75153;52.222;5.160;2024-01-10T07:05:59;7.00;;;3.83;;
84889;SDS011;75153;52.222;5.160;2024-01-10T07:08:25;8.95;;;3.80;;
84889;SDS011;75153;52.222;5.160;2024-01-10T07:10:51;7.03;;;4.15;;
84889;SDS011;75153;52.222;5.160;2024-01-10T07:13:16;6.67;;;3.60;;
84889;SDS011;75153;52.222;5.160;2024-01-10T07:15:42;8.95;;;3.53;;
84889;SDS011;75153;52.222;5.160;2024-01-10T07:18:07;8.83;;;3.30;;
84889;SDS011;75153;52.222;5.160;2024-01-10T07:20:33;7.20;;;3.90;;
84889;SDS011;75153;52.222;5.160;2024-01-10T07:22:58;8.90;;;3.90;;
84889;SDS011;75153;52.222;5.160;2024-01-10T07:25:24;6.72;;;3.60;;
84889;SDS011;75153;52.222;5.160;2024-01-10T07:27:51;6.73;;;3.80;;
84889;SDS011;75153;52.222;5.160;2024-01-10T07:30:16;7.07;;;3.60;;
84889;SDS011;75153;52.222;5.160;2024-01-10T07:32:42;8.90;;;4.10;;
84889;SDS011;75153;52.222;5.160;2024-01-10T07:35:09;8.02;;;3.90;;
84889;SDS011;75153;52.222;5.160;2024-01-10T07:37:36;6.85;;;3.72;;
84889;SDS011;75153;52.222;5.160;2024-01-10T07:40:02;6.18;;;3.00;;
84889;SDS011;75153;52.222;5.160;2024-01-10T07:42:31;5.43;;;2.92;;
84889;SDS011;75153;52.222;5.160;2024-01-10T07:44:57;7.07;;;3.70;;
84889;SDS011;75153;52.222;5.160;2024-01-10T07:47:22;5.27;;;3.00;;
84889;SDS011;75153;52.222;5.160;2024-01-10T07:49:48;6.68;;;3.08;;
84889;SDS011;75153;52.222;5.160;2024-01-10T07:52:13;6.50;;;3.50;;
84889;SDS011;75153;52.222;5.160;2024-01-10T07:54:38;6.67;;;3.77;;
84889;SDS011;75153;52.222;5.160;2024-01-10T07:57:04;8.20;;;3.50;;
84889;SDS011;75153;52.222;5.160;2024-01-10T07:59:29;6.47;;;3.30;;
84889;SDS011;75153;52.222;5.160;2024-01-10T08:01:55;5.57;;;3.17;;
84889;SDS011;75153;52.222;5.160;2024-01-10T08:04:24;6.90;;;3.55;;
84889;SDS011;75153;52.222;5.160;2024-01-10T08:06:51;6.75;;;3.70;;
84889;SDS011;75153;52.222;5.160;2024-01-10T08:09:16;7.78;;;3.42;;
84889;SDS011;75153;52.222;5.160;2024-01-10T08:11:44;6.03;;;2.90;;
84889;SDS011;75153;52.222;5.160;2024-01-10T08:14:10;6.85;;;3.30;;
84889;SDS011;75153;52.222;5.160;2024-01-10T08:16:35;8.85;;;3.85;;
84889;SDS011;75153;52.222;5.160;2024-01-10T08:19:01;8.07;;;3.60;;
84889;SDS011;75153;52.222;5.160;2024-01-10T08:21:26;5.90;;;3.47;;
84889;SDS011;75153;52.222;5.160;2024-01-10T08:23:51;8.27;;;3.90;;
84889;SDS011;75153;52.222;5.160;2024-01-10T08:26:17;8.27;;;3.90;;
84889;SDS011;75153;52.222;5.160;2024-01-10T08:28:42;5.37;;;3.30;;
84889;SDS011;75153;52.222;5.160;2024-01-10T08:31:08;7.70;;;3.43;;
84889;SDS011;75153;52.222;5.160;2024-01-10T08:33:33;5.78;;;3.40;;
84889;SDS011;75153;52.222;5.160;2024-01-10T08:35:59;7.80;;;3.83;;
84889;SDS011;75153;52.222;5.160;2024-01-10T08:38:24;10.67;;;3.43;;
84889;SDS011;75153;52.222;5.160;2024-01-10T08:40:49;6.87;;;3.43;;
84889;SDS011;75153;52.222;5.160;2024-01-10T08:43:15;6.07;;;3.30;;
84889;SDS011;75153;52.222;5.160;2024-01-10T08:45:40;7.03;;;3.15;;
84889;SDS011;75153;52.222;5.160;2024-01-10T08:48:05;7.23;;;3.10;;
84889;SDS011;75153;52.222;5.160;2024-01-10T08:50:35;7.23;;;3.47;;
84889;SDS011;75153;52.222;5.160;2024-01-10T08:53:01;6.38;;;3.35;;
84889;SDS011;75153;52.222;5.160;2024-01-10T08:55:30;6.40;;;3.10;;
84889;SDS011;75153;52.222;5.160;2024-01-10T08:57:55;5.80;;;2.53;;
84889;SDS011;75153;52.222;5.160;2024-01-10T09:00:20;6.33;;;3.33;;
84889;SDS011;75153;52.222;5.160;2024-01-10T09:02:46;5.43;;;3.07;;
84889;SDS011;75153;52.222;5.160;2024-01-10T09:05:12;6.90;;;3.00;;
84889;SDS011;75153;52.222;5.160;2024-01-10T09:07:37;6.15;;;2.50;;
84889;SDS011;75153;52.222;5.160;2024-01-10T09:10:03;6.07;;;3.03;;
84889;SDS011;75153;52.222;5.160;2024-01-10T09:12:30;7.55;;;3.10;;
84889;SDS011;75153;52.222;5.160;2024-01-10T09:14:56;6.43;;;3.33;;
84889;SDS011;75153;52.222;5.160;2024-01-10T09:17:21;5.78;;;2.90;;
84889;SDS011;75153;52.222;5.160;2024-01-10T09:19:47;7.83;;;3.40;;
84889;SDS011;75153;52.222;5.160;2024-01-10T09:22:12;5.17;;;2.97;;
84889;SDS011;75153;52.222;5.160;2024-01-10T09:24:38;5.53;;;2.88;;
84889;SDS011;75153;52.222;5.160;2024-01-10T09:27:04;7.83;;;3.50;;
84889;SDS011;75153;52.222;5.160;2024-01-10T09:29:29;4.85;;;2.90;;
84889;SDS011;75153;52.222;5.160;2024-01-10T09:31:56;6.20;;;2.97;;
84889;SDS011;75153;52.222;5.160;2024-01-10T09:34:22;5.93;;;3.20;;
84889;SDS011;75153;52.222;5.160;2024-01-10T09:36:47;7.07;;;3.07;;
84889;SDS011;75153;52.222;5.160;2024-01-10T09:39:13;5.30;;;2.77;;
84889;SDS011;75153;52.222;5.160;2024-01-10T09:41:45;7.50;;;3.40;;
84889;SDS011;75153;52.222;5.160;2024-01-10T09:46:53;5.40;;;2.58;;
84889;SDS011;75153;52.222;5.160;2024-01-10T09:49:19;5.80;;;3.10;;
84889;SDS011;75153;52.222;5.160;2024-01-10T09:51:48;5.50;;;2.83;;
84889;SDS011;75153;52.222;5.160;2024-01-10T09:54:15;7.65;;;3.88;;
84889;SDS011;75153;52.222;5.160;2024-01-10T09:56:41;6.95;;;3.45;;
84889;SDS011;75153;52.222;5.160;2024-01-10T09:59:07;5.80;;;2.53;;
84889;SDS011;75153;52.222;5.160;2024-01-10T10:01:36;6.15;;;3.10;;
84889;SDS011;75153;52.222;5.160;2024-01-10T10:04:04;7.10;;;2.90;;
84889;SDS011;75153;52.222;5.160;2024-01-10T10:06:31;6.47;;;3.17;;
84889;SDS011;75153;52.222;5.160;2024-01-10T10:08:56;7.20;;;3.27;;
84889;SDS011;75153;52.222;5.160;2024-01-10T10:11:21;7.32;;;3.42;;
84889;SDS011;75153;52.222;5.160;2024-01-10T10:13:47;9.02;;;3.78;;
84889;SDS011;75153;52.222;5.160;2024-01-10T10:16:12;9.57;;;3.90;;
84889;SDS011;75153;52.222;5.160;2024-01-10T10:18:38;7.07;;;3.40;;
84889;SDS011;75153;52.222;5.160;2024-01-10T10:21:14;6.90;;;2.97;;
84889;SDS011;75153;52.222;5.160;2024-01-10T10:23:41;6.03;;;3.50;;
84889;SDS011;75153;52.222;5.160;2024-01-10T10:26:22;6.90;;;3.40;;
84889;SDS011;75153;52.222;5.160;2024-01-10T10:28:49;7.85;;;3.97;;
84889;SDS011;75153;52.222;5.160;2024-01-10T10:31:16;7.32;;;3.20;;
84889;SDS011;75153;52.222;5.160;2024-01-10T10:33:42;8.65;;;4.00;;
84889;SDS011;75153;52.222;5.160;2024-01-10T10:36:09;5.68;;;3.20;;
84889;SDS011;75153;52.222;5.160;2024-01-10T10:38:34;5.30;;;3.10;;
84889;SDS011;75153;52.222;5.160;2024-01-10T10:41:02;9.45;;;3.97;;
84889;SDS011;75153;52.222;5.160;2024-01-10T10:43:30;5.28;;;2.90;;
84889;SDS011;75153;52.222;5.160;2024-01-10T10:46:00;7.40;;;3.53;;
84889;SDS011;75153;52.222;5.160;2024-01-10T10:48:26;7.03;;;3.45;;
84889;SDS011;75153;52.222;5.160;2024-01-10T10:53:34;6.82;;;3.20;;
84889;SDS011;75153;52.222;5.160;2024-01-10T10:56:07;5.32;;;2.58;;
84889;SDS011;75153;52.222;5.160;2024-01-10T10:58:43;6.20;;;3.10;;
84889;SDS011;75153;52.222;5.160;2024-01-10T11:01:10;7.55;;;3.33;;
84889;SDS011;75153;52.222;5.160;2024-01-10T11:03:38;5.63;;;2.90;;
84889;SDS011;75153;52.222;5.160;2024-01-10T11:06:05;6.97;;;3.20;;
84889;SDS011;75153;52.222;5.160;2024-01-10T11:08:42;7.07;;;3.35;;
84889;SDS011;75153;52.222;5.160;2024-01-10T11:11:14;6.43;;;3.53;;
84889;SDS011;75153;52.222;5.160;2024-01-10T11:14:14;8.20;;;3.30;;
84889;SDS011;75153;52.222;5.160;2024-01-10T11:19:40;7.78;;;3.40;;
84889;SDS011;75153;52.222;5.160;2024-01-10T11:25:07;8.00;;;3.80;;
84889;SDS011;75153;52.222;5.160;2024-01-10T11:27:32;9.93;;;4.75;;
84889;SDS011;75153;52.222;5.160;2024-01-10T11:29:58;8.97;;;3.70;;
84889;SDS011;75153;52.222;5.160;2024-01-10T11:32:25;6.72;;;3.42;;
84889;SDS011;75153;52.222;5.160;2024-01-10T11:34:56;7.97;;;3.63;;
84889;SDS011;75153;52.222;5.160;2024-01-10T11:37:23;7.00;;;3.42;;
84889;SDS011;75153;52.222;5.160;2024-01-10T11:39:54;6.93;;;3.55;;
84889;SDS011;75153;52.222;5.160;2024-01-10T11:42:23;7.33;;;4.07;;
84889;SDS011;75153;52.222;5.160;2024-01-10T11:45:05;7.53;;;3.65;;
84889;SDS011;75153;52.222;5.160;2024-01-10T11:47:31;7.20;;;3.20;;
84889;SDS011;75153;52.222;5.160;2024-01-10T11:49:57;8.27;;;3.72;;
84889;SDS011;75153;52.222;5.160;2024-01-10T11:52:23;8.02;;;4.03;;
84889;SDS011;75153;52.222;5.160;2024-01-10T11:54:49;8.18;;;4.28;;
84889;SDS011;75153;52.222;5.160;2024-01-10T11:57:19;7.00;;;3.67;;
84889;SDS011;75153;52.222;5.160;2024-01-10T11:59:46;5.28;;;3.33;;
84889;SDS011;75153;52.222;5.160;2024-01-10T12:02:15;7.30;;;3.40;;
84889;SDS011;75153;52.222;5.160;2024-01-10T12:04:40;7.72;;;3.65;;
84889;SDS011;75153;52.222;5.160;2024-01-10T12:07:07;7.20;;;3.72;;
84889;SDS011;75153;52.222;5.160;2024-01-10T12:09:33;8.25;;;4.07;;
84889;SDS011;75153;52.222;5.160;2024-01-10T12:11:59;6.60;;;3.60;;
84889;SDS011;75153;52.222;5.160;2024-01-10T12:14:25;7.88;;;3.75;;
84889;SDS011;75153;52.222;5.160;2024-01-10T12:16:52;7.50;;;4.00;;
84889;SDS011;75153;52.222;5.160;2024-01-10T12:19:18;6.40;;;2.95;;
84889;SDS011;75153;52.222;5.160;2024-01-10T12:21:43;8.53;;;4.73;;
84889;SDS011;75153;52.222;5.160;2024-01-10T12:24:09;7.43;;;3.63;;
84889;SDS011;75153;52.222;5.160;2024-01-10T12:26:34;7.68;;;4.07;;
84889;SDS011;75153;52.222;5.160;2024-01-10T12:29:01;6.47;;;3.83;;
84889;SDS011;75153;52.222;5.160;2024-01-10T12:31:29;6.85;;;3.80;;
84889;SDS011;75153;52.222;5.160;2024-01-10T12:33:55;7.53;;;3.70;;
84889;SDS011;75153;52.222;5.160;2024-01-10T12:36:21;7.35;;;3.45;;
84889;SDS011;75153;52.222;5.160;2024-01-10T12:38:46;9.00;;;3.90;;
84889;SDS011;75153;52.222;5.160;2024-01-10T12:41:14;8.20;;;3.53;;
84889;SDS011;75153;52.222;5.160;2024-01-10T12:43:40;10.48;;;4.43;;
84889;SDS011;75153;52.222;5.160;2024-01-10T12:48:38;8.90;;;3.97;;
84889;SDS011;75153;52.222;5.160;2024-01-10T12:51:08;8.35;;;4.38;;
84889;SDS011;75153;52.222;5.160;2024-01-10T12:53:35;6.72;;;3.70;;
84889;SDS011;75153;52.222;5.160;2024-01-10T12:56:02;7.50;;;3.65;;
84889;SDS011;75153;52.222;5.160;2024-01-10T12:58:28;7.32;;;3.88;;
84889;SDS011;75153;52.222;5.160;2024-01-10T13:00:54;7.00;;;4.27;;
84889;SDS011;75153;52.222;5.160;2024-01-10T13:03:20;8.68;;;3.70;;
84889;SDS011;75153;52.222;5.160;2024-01-10T13:05:46;9.27;;;4.20;;
84889;SDS011;75153;52.222;5.160;2024-01-10T13:08:11;9.93;;;4.47;;
84889;SDS011;75153;52.222;5.160;2024-01-10T13:10:37;7.32;;;3.65;;
84889;SDS011;75153;52.222;5.160;2024-01-10T13:13:03;9.60;;;4.22;;
84889;SDS011;75153;52.222;5.160;2024-01-10T13:15:28;7.10;;;4.07;;
84889;SDS011;75153;52.222;5.160;2024-01-10T13:17:54;6.60;;;3.30;;
84889;SDS011;75153;52.222;5.160;2024-01-10T13:20:20;9.00;;;3.77;;
84889;SDS011;75153;52.222;5.160;2024-01-10T13:22:46;9.18;;;4.50;;
84889;SDS011;75153;52.222;5.160;2024-01-10T13:25:11;7.77;;;3.87;;
84889;SDS011;75153;52.222;5.160;2024-01-10T13:27:36;6.80;;;4.03;;
84889;SDS011;75153;52.222;5.160;2024-01-10T13:30:02;8.00;;;4.33;;
84889;SDS011;75153;52.222;5.160;2024-01-10T13:32:29;7.32;;;4.00;;
84889;SDS011;75153;52.222;5.160;2024-01-10T13:34:54;5.60;;;3.30;;
84889;SDS011;75153;52.222;5.160;2024-01-10T13:37:20;6.83;;;4.27;;
84889;SDS011;75153;52.222;5.160;2024-01-10T13:39:45;7.53;;;4.00;;
84889;SDS011;75153;52.222;5.160;2024-01-10T13:42:10;9.20;;;4.30;;
84889;SDS011;75153;52.222;5.160;2024-01-10T13:44:36;8.80;;;4.28;;
84889;SDS011;75153;52.222;5.160;2024-01-10T13:47:02;7.80;;;4.10;;
84889;SDS011;75153;52.222;5.160;2024-01-10T13:49:28;8.43;;;4.15;;
84889;SDS011;75153;52.222;5.160;2024-01-10T13:51:54;7.87;;;3.83;;
84889;SDS011;75153;52.222;5.160;2024-01-10T13:54:19;7.85;;;4.05;;
84889;SDS011;75153;52.222;5.160;2024-01-10T13:56:46;7.53;;;3.97;;
84889;SDS011;75153;52.222;5.160;2024-01-10T13:59:11;7.85;;;4.50;;
84889;SDS011;75153;52.222;5.160;2024-01-10T14:01:37;7.03;;;3.73;;
84889;SDS011;75153;52.222;5.160;2024-01-10T14:04:02;7.70;;;4.00;;
84889;SDS011;75153;52.222;5.160;2024-01-10T14:06:28;6.73;;;4.37;;
84889;SDS011;75153;52.222;5.160;2024-01-10T14:08:54;6.30;;;3.80;;
84889;SDS011;75153;52.222;5.160;2024-01-10T14:11:19;8.43;;;4.40;;
84889;SDS011;75153;52.222;5.160;2024-01-10T14:13:45;8.83;;;4.20;;
84889;SDS011;75153;52.222;5.160;2024-01-10T14:16:10;7.70;;;4.07;;
84889;SDS011;75153;52.222;5.160;2024-01-10T14:18:36;7.97;;;4.23;;
84889;SDS011;75153;52.222;5.160;2024-01-10T14:21:02;8.68;;;4.38;;
84889;SDS011;75153;52.222;5.160;2024-01-10T14:23:27;6.17;;;3.43;;
84889;SDS011;75153;52.222;5.160;2024-01-10T14:25:53;8.13;;;4.27;;
84889;SDS011;75153;52.222;5.160;2024-01-10T14:28:18;8.90;;;3.90;;
84889;SDS011;75153;52.222;5.160;2024-01-10T14:30:46;9.30;;;4.88;;
84889;SDS011;75153;52.222;5.160;2024-01-10T14:33:11;6.13;;;3.63;;
84889;SDS011;75153;52.222;5.160;2024-01-10T14:35:39;7.97;;;4.25;;
84889;SDS011;75153;52.222;5.160;2024-01-10T14:38:05;9.48;;;4.55;;
84889;SDS011;75153;52.222;5.160;2024-01-10T14:40:30;8.47;;;4.30;;
84889;SDS011;75153;52.222;5.160;2024-01-10T14:42:56;9.13;;;4.80;;
84889;SDS011;75153;52.222;5.160;2024-01-10T14:45:21;9.10;;;4.43;;
84889;SDS011;75153;52.222;5.160;2024-01-10T14:47:47;9.10;;;4.45;;
84889;SDS011;75153;52.222;5.160;2024-01-10T14:50:14;7.68;;;3.53;;
84889;SDS011;75153;52.222;5.160;2024-01-10T14:52:40;5.72;;;3.58;;
84889;SDS011;75153;52.222;5.160;2024-01-10T14:55:05;9.50;;;4.80;;